Time;durP1;ratioP1;P1;durP2;ratioP2;P2;SDS_P1;SDS_P2;PMS_P1;PMS_P2;Temp;Humidity;BMP_temperature;BMP_pressure;BME280_temperature;BME280_humidity;BME280_pressure;Samples;Min_cycle;Max_cycle;Signal;HPM_P1;HPM_P2
2021/08/19 00:00:55;;;;;;;7.57;6.00;;;16.60;99.90;;;;;;5049530;28;20074;-73
2021/08/19 00:03:20;;;;;;;7.57;5.53;;;16.50;99.90;;;;;;5050651;28;20024;-75
2021/08/19 00:05:46;;;;;;;10.05;5.97;;;16.50;99.90;;;;;;5050230;28;20029;-75
2021/08/19 00:08:12;;;;;;;7.72;5.80;;;16.60;99.90;;;;;;5066714;28;20494;-74
2021/08/19 00:10:38;;;;;;;8.82;6.20;;;16.50;99.90;;;;;;5046704;28;20025;-74
2021/08/19 00:13:04;;;;;;;7.85;5.35;;;16.60;99.90;;;;;;5065419;28;20032;-74
2021/08/19 00:15:29;;;;;;;7.22;5.40;;;16.50;99.90;;;;;;5066190;28;20116;-75
2021/08/19 00:17:55;;;;;;;9.10;5.85;;;16.50;99.90;;;;;;5048888;28;20040;-74
2021/08/19 00:20:20;;;;;;;10.82;6.18;;;16.50;99.90;;;;;;5048042;28;20041;-73
2021/08/19 00:22:46;;;;;;;11.75;6.20;;;16.50;99.90;;;;;;5050664;28;20025;-75
2021/08/19 00:25:12;;;;;;;7.47;6.28;;;16.40;99.90;;;;;;5049919;28;20510;-74
2021/08/19 00:27:38;;;;;;;7.40;5.50;;;16.40;99.90;;;;;;5051010;28;20036;-74
2021/08/19 00:30:04;;;;;;;12.70;6.30;;;16.40;99.90;;;;;;5050658;28;20025;-75
2021/08/19 00:32:30;;;;;;;11.85;7.22;;;16.50;99.90;;;;;;5049811;28;20025;-74
2021/08/19 00:34:56;;;;;;;7.65;5.97;;;16.50;99.90;;;;;;5050560;28;20462;-74
2021/08/19 00:37:21;;;;;;;11.85;7.38;;;16.50;99.90;;;;;;5054992;28;20036;-75
2021/08/19 00:39:47;;;;;;;12.60;6.78;;;16.60;99.90;;;;;;5056010;28;20123;-75
2021/08/19 00:42:19;;;;;;;7.68;6.35;;;16.60;99.90;;;;;;5054520;28;20078;-75
2021/08/19 00:44:45;;;;;;;13.98;7.80;;;16.60;99.90;;;;;;5055081;28;20029;-75
2021/08/19 00:47:11;;;;;;;11.52;7.15;;;16.70;99.90;;;;;;5055205;28;20480;-75
2021/08/19 00:49:38;;;;;;;11.18;7.53;;;16.70;99.90;;;;;;5054439;28;20036;-74
2021/08/19 00:52:05;;;;;;;13.32;7.00;;;16.70;99.90;;;;;;5055720;28;20029;-75
2021/08/19 00:54:31;;;;;;;12.20;8.00;;;16.70;99.90;;;;;;5054947;28;20036;-75
2021/08/19 00:57:03;;;;;;;10.98;8.07;;;16.70;99.90;;;;;;5053877;28;20093;-74
2021/08/19 00:59:36;;;;;;;14.55;8.23;;;16.80;99.90;;;;;;5053334;28;20075;-75
2021/08/19 01:02:03;;;;;;;13.75;8.55;;;16.80;99.90;;;;;;5053800;28;20049;-75
2021/08/19 01:04:31;;;;;;;15.43;7.93;;;16.80;99.90;;;;;;5054406;28;20074;-75
2021/08/19 01:06:59;;;;;;;12.40;8.05;;;16.70;99.90;;;;;;5069964;28;20432;-75
2021/08/19 01:09:24;;;;;;;;;;;16.70;99.90;;;;;;5055368;28;20108;-75
2021/08/19 01:11:50;;;;;;;14.07;8.05;;;16.70;99.90;;;;;;5055230;28;20012;-75
2021/08/19 01:14:16;;;;;;;12.82;8.52;;;16.70;99.90;;;;;;5053048;28;20033;-75
2021/08/19 01:16:44;;;;;;;11.23;8.15;;;16.80;99.90;;;;;;5069191;28;20040;-75
2021/08/19 01:19:20;;;;;;;;;;;16.80;99.90;;;;;;5053887;28;20162;-75
2021/08/19 01:21:47;;;;;;;11.45;7.60;;;16.80;99.90;;;;;;5053773;28;19908;-75
2021/08/19 01:24:13;;;;;;;32.38;10.27;;;16.80;99.90;;;;;;5054301;28;20167;-75
2021/08/19 01:26:40;;;;;;;14.15;8.82;;;16.80;99.90;;;;;;5054752;28;20119;-75
2021/08/19 01:29:06;;;;;;;16.20;8.18;;;16.80;99.90;;;;;;5054423;28;20496;-75
2021/08/19 01:31:33;;;;;;;15.98;11.00;;;16.80;99.90;;;;;;5053279;28;20033;-74
2021/08/19 01:33:59;;;;;;;13.20;8.60;;;16.90;99.90;;;;;;5053212;28;20055;-75
2021/08/19 01:36:25;;;;;;;13.60;10.07;;;16.90;99.90;;;;;;5053399;28;20082;-75
2021/08/19 01:38:51;;;;;;;14.43;9.13;;;16.90;99.90;;;;;;5054027;28;20033;-75
2021/08/19 01:41:17;;;;;;;17.17;9.48;;;16.90;99.90;;;;;;5053481;28;20074;-76
2021/08/19 01:43:45;;;;;;;13.95;9.50;;;16.90;99.90;;;;;;5053044;28;20028;-75
2021/08/19 01:46:12;;;;;;;18.42;10.43;;;16.90;99.90;;;;;;5054286;28;20025;-75
2021/08/19 01:48:42;;;;;;;14.30;9.43;;;16.90;99.90;;;;;;5054352;28;20013;-75
2021/08/19 01:51:12;;;;;;;15.15;9.45;;;16.90;99.90;;;;;;5055172;28;20365;-75
2021/08/19 01:53:41;;;;;;;17.17;9.30;;;16.90;99.90;;;;;;5054890;28;20021;-75
2021/08/19 01:56:06;;;;;;;14.50;9.77;;;17.00;99.90;;;;;;5053194;28;20024;-75
2021/08/19 01:58:32;;;;;;;18.05;9.98;;;17.00;99.90;;;;;;5054681;28;20508;-75
2021/08/19 02:00:57;;;;;;;14.68;9.32;;;17.00;99.90;;;;;;5055481;28;20053;-75
2021/08/19 02:03:23;;;;;;;18.40;10.43;;;17.00;99.90;;;;;;5055704;28;20028;-75
2021/08/19 02:05:48;;;;;;;19.92;10.35;;;17.10;99.90;;;;;;5054568;28;20029;-75
2021/08/19 02:08:16;;;;;;;19.20;10.70;;;17.00;99.90;;;;;;5054308;28;20033;-75
2021/08/19 02:10:43;;;;;;;19.00;11.52;;;17.00;99.90;;;;;;5059949;28;20025;-75
2021/08/19 02:13:09;;;;;;;25.05;10.80;;;17.10;99.90;;;;;;5073365;28;20036;-75
2021/08/19 02:15:35;;;;;;;17.10;10.70;;;17.00;99.90;;;;;;5070956;28;20032;-76
2021/08/19 02:18:01;;;;;;;17.83;10.95;;;17.00;99.90;;;;;;5069563;28;20025;-75
2021/08/19 02:20:27;;;;;;;16.45;9.93;;;17.00;99.90;;;;;;5072401;28;20040;-75
2021/08/19 02:23:00;;;;;;;16.48;10.70;;;16.90;99.90;;;;;;5071273;28;20422;-75
2021/08/19 02:25:26;;;;;;;17.27;10.32;;;16.90;99.90;;;;;;5074486;28;20017;-76
2021/08/19 02:27:52;;;;;;;20.90;10.18;;;16.90;99.90;;;;;;5074349;28;20082;-76
2021/08/19 02:30:18;;;;;;;16.13;10.57;;;16.90;99.90;;;;;;5075199;28;20057;-75
2021/08/19 02:32:45;;;;;;;17.73;12.20;;;16.90;99.90;;;;;;5074342;28;20025;-75
2021/08/19 02:35:10;;;;;;;19.73;11.50;;;16.90;99.90;;;;;;5064026;28;20025;-75
2021/08/19 02:37:36;;;;;;;14.50;11.07;;;16.90;99.90;;;;;;5059796;28;20434;-75
2021/08/19 02:40:02;;;;;;;20.02;11.30;;;16.90;99.90;;;;;;5058052;28;20005;-75
2021/08/19 02:42:28;;;;;;;17.65;11.18;;;16.90;99.90;;;;;;5056587;28;20040;-75
2021/08/19 02:44:53;;;;;;;18.60;11.25;;;17.00;99.90;;;;;;5056973;28;20029;-76
2021/08/19 02:47:19;;;;;;;19.27;10.57;;;17.00;99.90;;;;;;5055055;28;20039;-75
2021/08/19 02:49:46;;;;;;;16.60;10.80;;;17.00;99.90;;;;;;5053594;28;20385;-75
2021/08/19 02:52:12;;;;;;;14.30;10.18;;;17.00;99.90;;;;;;5055810;28;20427;-75
2021/08/19 02:54:37;;;;;;;19.48;10.85;;;17.00;99.90;;;;;;5053473;28;20029;-75
2021/08/19 02:57:03;;;;;;;20.13;11.35;;;17.00;99.90;;;;;;5052574;28;20024;-75
2021/08/19 02:59:29;;;;;;;16.05;10.50;;;17.00;99.90;;;;;;5053391;28;20040;-75
2021/08/19 03:01:54;;;;;;;21.13;11.13;;;17.00;99.90;;;;;;5052414;28;20047;-75
2021/08/19 03:04:20;;;;;;;22.65;11.93;;;17.00;99.90;;;;;;5053291;28;20461;-75
2021/08/19 03:06:45;;;;;;;20.92;10.80;;;17.00;99.90;;;;;;5051009;28;20033;-75
2021/08/19 03:09:11;;;;;;;18.77;11.77;;;17.10;99.90;;;;;;5051102;28;20036;-76
2021/08/19 03:11:36;;;;;;;18.05;11.80;;;17.00;99.90;;;;;;5051397;28;20473;-76
2021/08/19 03:14:02;;;;;;;27.05;11.63;;;17.10;99.90;;;;;;5052378;28;20043;-75
2021/08/19 03:16:28;;;;;;;27.67;12.88;;;17.00;99.90;;;;;;5052871;28;20114;-75
2021/08/19 03:18:53;;;;;;;22.63;12.63;;;17.10;99.90;;;;;;5051034;28;20040;-75
2021/08/19 03:21:20;;;;;;;20.33;12.13;;;17.00;99.90;;;;;;5052272;28;20028;-75
2021/08/19 03:23:46;;;;;;;23.17;12.60;;;17.10;99.90;;;;;;5052992;28;20017;-75
2021/08/19 03:26:11;;;;;;;19.83;11.43;;;17.10;99.90;;;;;;5051207;28;20511;-75
2021/08/19 03:28:40;;;;;;;23.92;12.20;;;17.10;99.90;;;;;;5052026;28;20099;-75
2021/08/19 03:31:06;;;;;;;20.73;11.02;;;17.20;99.90;;;;;;5050613;28;20493;-76
2021/08/19 03:33:32;;;;;;;23.90;11.18;;;17.20;99.90;;;;;;5052458;28;20074;-75
2021/08/19 03:35:57;;;;;;;21.08;10.48;;;17.20;99.90;;;;;;5050829;28;20032;-76
2021/08/19 03:38:24;;;;;;;22.88;11.75;;;17.20;99.90;;;;;;5052141;28;20106;-75
2021/08/19 03:40:49;;;;;;;26.67;12.10;;;17.20;99.90;;;;;;5051672;28;20041;-75
2021/08/19 03:43:15;;;;;;;23.60;11.35;;;17.20;99.90;;;;;;5051012;28;20059;-75
2021/08/19 03:45:41;;;;;;;16.65;10.18;;;17.20;99.90;;;;;;5051887;28;20098;-75
2021/08/19 03:48:07;;;;;;;27.27;11.80;;;17.20;99.90;;;;;;5052396;28;20049;-75
2021/08/19 03:50:34;;;;;;;28.65;11.68;;;17.20;99.90;;;;;;5050188;28;20041;-75
2021/08/19 03:53:00;;;;;;;22.67;11.18;;;17.30;99.90;;;;;;5051073;28;20099;-76
2021/08/19 03:55:25;;;;;;;19.98;10.63;;;17.30;99.90;;;;;;5052488;28;20466;-75
2021/08/19 03:57:52;;;;;;;17.73;10.15;;;17.20;99.90;;;;;;5051131;28;20405;-75
2021/08/19 04:00:18;;;;;;;19.85;10.57;;;17.20;99.90;;;;;;5050093;28;20082;-75
2021/08/19 04:02:47;;;;;;;19.35;10.82;;;17.20;99.90;;;;;;5052076;28;20465;-75
2021/08/19 04:05:13;;;;;;;18.95;11.45;;;17.20;99.90;;;;;;5051246;28;20385;-75
2021/08/19 04:07:38;;;;;;;17.08;10.35;;;17.20;99.90;;;;;;5051124;28;20037;-75
2021/08/19 04:10:05;;;;;;;17.40;10.45;;;17.20;99.90;;;;;;5050811;28;20037;-76
2021/08/19 04:12:30;;;;;;;19.40;10.85;;;17.20;99.90;;;;;;5053718;28;20028;-75
2021/08/19 04:14:56;;;;;;;21.05;10.63;;;17.20;99.90;;;;;;5054935;28;20450;-75
2021/08/19 04:17:21;;;;;;;21.75;11.25;;;17.20;99.90;;;;;;5070447;28;20031;-75
2021/08/19 04:19:47;;;;;;;23.23;12.05;;;17.20;99.90;;;;;;5053182;28;20029;-76
2021/08/19 04:22:13;;;;;;;18.15;10.25;;;17.30;99.90;;;;;;5052821;28;20024;-75
2021/08/19 04:24:38;;;;;;;21.92;11.88;;;17.30;99.90;;;;;;5052876;28;20449;-76
2021/08/19 04:27:04;;;;;;;19.02;10.43;;;17.30;99.90;;;;;;5050553;28;20501;-76
2021/08/19 04:29:33;;;;;;;20.65;12.02;;;17.30;99.90;;;;;;5053534;28;20021;-75
2021/08/19 04:32:00;;;;;;;24.98;12.20;;;17.30;99.90;;;;;;5052620;28;20044;-75
2021/08/19 04:34:25;;;;;;;21.73;11.95;;;17.30;99.90;;;;;;5053564;28;20025;-75
2021/08/19 04:36:51;;;;;;;24.83;11.73;;;17.30;99.90;;;;;;5054482;28;20037;-75
2021/08/19 04:39:17;;;;;;;19.60;11.02;;;17.30;99.90;;;;;;5052188;28;20026;-75
2021/08/19 04:41:43;;;;;;;23.13;11.90;;;17.30;99.90;;;;;;5054806;28;20154;-75
2021/08/19 04:44:10;;;;;;;18.75;11.20;;;17.30;99.90;;;;;;5051183;28;20112;-75
2021/08/19 04:46:35;;;;;;;18.20;11.02;;;17.30;99.90;;;;;;5053669;28;20027;-76
2021/08/19 04:49:05;;;;;;;21.77;10.88;;;17.30;99.90;;;;;;5051281;28;20032;-76
2021/08/19 04:51:33;;;;;;;19.42;10.77;;;17.30;99.90;;;;;;5050134;28;20033;-75
2021/08/19 04:53:59;;;;;;;;;;;17.30;99.90;;;;;;5052295;28;20036;-75
2021/08/19 04:56:27;;;;;;;18.17;10.15;;;17.30;99.90;;;;;;5061729;28;20291;-75
2021/08/19 04:58:53;;;;;;;17.63;10.07;;;17.30;99.90;;;;;;5042022;28;20021;-75
2021/08/19 05:01:19;;;;;;;16.25;9.82;;;17.30;99.90;;;;;;5052544;28;20136;-75
2021/08/19 05:03:44;;;;;;;22.17;10.38;;;17.30;99.90;;;;;;5052557;28;20039;-75
2021/08/19 05:06:10;;;;;;;21.83;11.43;;;17.40;99.90;;;;;;5053348;28;20044;-75
2021/08/19 05:11:21;;;;;;;14.00;10.43;;;17.40;99.90;;;;;;5053775;28;20173;-75
2021/08/19 05:13:47;;;;;;;23.45;10.75;;;17.30;99.90;;;;;;5051962;28;20021;-75
2021/08/19 05:16:12;;;;;;;18.17;10.27;;;17.40;99.90;;;;;;5054218;28;20029;-75
2021/08/19 05:18:40;;;;;;;17.17;10.63;;;17.40;99.90;;;;;;5053085;28;20029;-75
2021/08/19 05:21:06;;;;;;;9.50;7.00;;;17.40;99.90;;;;;;5054410;28;20082;-75
2021/08/19 05:23:31;;;;;;;17.58;9.80;;;17.40;99.90;;;;;;5053861;28;20033;-75
2021/08/19 05:25:57;;;;;;;18.08;9.40;;;17.40;99.90;;;;;;5053288;28;20110;-75
2021/08/19 05:28:22;;;;;;;15.82;9.55;;;17.40;99.90;;;;;;5049996;28;20028;-75
2021/08/19 05:30:48;;;;;;;11.20;8.73;;;17.40;99.90;;;;;;5053218;28;20021;-76
2021/08/19 05:33:14;;;;;;;17.60;9.88;;;17.40;99.90;;;;;;5052354;28;20017;-75
2021/08/19 05:35:39;;;;;;;18.50;10.00;;;17.40;99.90;;;;;;5053749;28;20037;-75
2021/08/19 05:38:05;;;;;;;16.02;9.40;;;17.40;99.90;;;;;;5053528;28;20089;-75
2021/08/19 05:40:30;;;;;;;14.63;8.85;;;17.40;99.90;;;;;;5048028;28;20021;-75
2021/08/19 05:42:56;;;;;;;15.23;9.02;;;17.40;99.90;;;;;;5052595;28;20082;-75
2021/08/19 05:45:21;;;;;;;12.02;8.35;;;17.40;99.90;;;;;;5049396;28;20057;-75
2021/08/19 05:47:47;;;;;;;13.70;8.70;;;17.40;99.90;;;;;;5049863;28;20022;-76
2021/08/19 05:50:13;;;;;;;14.15;9.07;;;17.50;99.90;;;;;;5052764;28;20037;-75
2021/08/19 05:52:39;;;;;;;15.30;9.02;;;17.50;99.90;;;;;;5052802;28;20028;-75
2021/08/19 05:55:06;;;;;;;17.60;8.75;;;17.50;99.90;;;;;;5051707;28;20013;-76
2021/08/19 05:57:32;;;;;;;12.68;8.43;;;17.60;99.90;;;;;;5051572;28;21409;-76
2021/08/19 05:59:58;;;;;;;16.42;9.55;;;17.60;99.90;;;;;;5052707;28;20401;-76
2021/08/19 06:02:23;;;;;;;12.38;8.27;;;17.60;99.90;;;;;;5052636;28;20032;-75
2021/08/19 06:04:49;;;;;;;14.60;9.07;;;17.60;99.90;;;;;;5052541;28;20029;-76
2021/08/19 06:07:14;;;;;;;17.13;8.75;;;17.60;99.90;;;;;;5062344;28;20374;-76
2021/08/19 06:09:40;;;;;;;14.05;7.50;;;17.60;99.90;;;;;;5048396;28;20020;-76
2021/08/19 06:12:06;;;;;;;15.75;8.57;;;17.60;99.90;;;;;;5054888;28;20508;-76
2021/08/19 06:14:32;;;;;;;16.20;8.50;;;17.60;99.90;;;;;;5051612;28;20028;-73
2021/08/19 06:16:58;;;;;;;15.85;8.00;;;17.70;99.90;;;;;;5052900;28;20033;-76
2021/08/19 06:19:23;;;;;;;12.68;8.57;;;17.70;99.90;;;;;;5055171;28;20029;-73
2021/08/19 06:21:49;;;;;;;13.30;8.85;;;17.70;99.90;;;;;;5059727;28;20032;-76
2021/08/19 06:24:15;;;;;;;13.45;8.73;;;17.70;99.90;;;;;;5067412;28;20124;-76
2021/08/19 06:26:41;;;;;;;14.60;7.35;;;17.70;99.90;;;;;;5071035;28;20131;-76
2021/08/19 06:29:07;;;;;;;16.52;8.13;;;17.70;99.90;;;;;;5071152;28;20024;-76
2021/08/19 06:31:33;;;;;;;12.32;7.22;;;17.70;99.90;;;;;;5072465;28;20008;-76
2021/08/19 06:33:58;;;;;;;15.63;8.25;;;17.70;99.90;;;;;;5088909;28;20029;-77
2021/08/19 06:36:24;;;;;;;11.15;7.18;;;17.80;99.90;;;;;;5073810;28;20063;-76
2021/08/19 06:38:52;;;;;;;16.08;7.60;;;17.80;99.90;;;;;;5073623;28;20056;-77
2021/08/19 06:41:18;;;;;;;9.45;6.72;;;17.80;99.90;;;;;;5072976;28;20001;-75
2021/08/19 06:43:44;;;;;;;9.80;6.38;;;17.80;99.90;;;;;;5074542;28;20028;-76
2021/08/19 06:46:09;;;;;;;12.25;6.60;;;17.80;99.90;;;;;;5075845;28;20029;-75
2021/08/19 06:48:35;;;;;;;9.05;6.10;;;17.80;99.90;;;;;;5075813;28;20044;-74
2021/08/19 06:51:01;;;;;;;8.60;5.97;;;17.80;99.90;;;;;;5076208;28;20033;-75
2021/08/19 06:53:26;;;;;;;11.07;6.55;;;17.80;99.90;;;;;;5076531;28;20096;-75
2021/08/19 06:55:52;;;;;;;12.07;5.88;;;17.90;99.90;;;;;;5075504;28;20066;-74
2021/08/19 06:58:17;;;;;;;9.43;5.97;;;17.90;99.90;;;;;;5073882;28;20093;-76
2021/08/19 07:00:43;;;;;;;12.43;6.57;;;17.90;99.90;;;;;;5076067;28;20017;-75
2021/08/19 07:03:14;;;;;;;15.10;6.78;;;17.90;99.90;;;;;;5072052;28;20047;-74
2021/08/19 07:05:39;;;;;;;12.90;6.65;;;17.90;99.90;;;;;;5060584;28;20029;-73
2021/08/19 07:08:05;;;;;;;10.65;6.30;;;18.00;99.90;;;;;;5058096;28;20393;-74
2021/08/19 07:10:31;;;;;;;10.45;6.30;;;18.00;99.90;;;;;;5056899;28;20063;-75
2021/08/19 07:12:56;;;;;;;17.65;6.95;;;18.10;99.90;;;;;;5072040;28;20086;-74
2021/08/19 07:15:22;;;;;;;8.43;5.88;;;18.10;99.90;;;;;;5053927;28;20082;-75
2021/08/19 07:17:47;;;;;;;11.00;6.93;;;18.10;99.90;;;;;;5056207;28;20033;-74
2021/08/19 07:20:13;;;;;;;12.55;6.32;;;18.10;99.90;;;;;;5055603;28;20053;-73
2021/08/19 07:22:39;;;;;;;12.52;6.25;;;18.10;99.90;;;;;;5055931;28;20116;-75
2021/08/19 07:25:05;;;;;;;10.23;6.70;;;18.10;99.90;;;;;;5051324;28;20457;-75
2021/08/19 07:27:30;;;;;;;9.32;6.35;;;18.10;99.90;;;;;;5054430;28;20393;-74
2021/08/19 07:29:56;;;;;;;9.93;6.53;;;18.20;99.90;;;;;;5052129;28;20029;-74
2021/08/19 07:32:21;;;;;;;12.25;6.32;;;18.20;99.90;;;;;;5050921;28;20021;-75
2021/08/19 07:34:47;;;;;;;10.88;6.30;;;18.30;99.90;;;;;;5050186;28;20504;-75
2021/08/19 07:37:14;;;;;;;9.63;6.15;;;18.30;99.90;;;;;;5049561;28;20045;-72
2021/08/19 07:39:40;;;;;;;11.13;7.32;;;18.30;99.90;;;;;;5050817;28;20134;-72
2021/08/19 07:42:06;;;;;;;9.85;6.57;;;18.30;99.90;;;;;;5049750;28;20081;-74
2021/08/19 07:44:31;;;;;;;12.40;7.10;;;18.30;99.90;;;;;;5045975;28;20052;-74
2021/08/19 07:46:57;;;;;;;13.85;6.35;;;18.40;99.90;;;;;;5045841;28;20032;-74
2021/08/19 07:49:22;;;;;;;14.40;7.60;;;18.40;99.90;;;;;;5047561;28;20048;-74
2021/08/19 07:51:48;;;;;;;9.45;6.70;;;18.40;99.90;;;;;;5045455;28;20378;-73
2021/08/19 07:54:16;;;;;;;10.65;6.78;;;18.40;99.90;;;;;;5047401;28;20025;-74
2021/08/19 07:56:42;;;;;;;;;;;18.50;99.90;;;;;;5047536;28;20021;-75
2021/08/19 07:59:07;;;;;;;7.75;6.93;;;18.50;99.90;;;;;;5045828;28;19915;-73
2021/08/19 08:01:33;;;;;;;11.20;7.20;;;18.50;99.90;;;;;;5047747;28;20482;-73
2021/08/19 08:03:58;;;;;;;10.02;6.53;;;18.50;99.90;;;;;;5047269;28;20127;-74
2021/08/19 08:06:24;;;;;;;12.57;7.07;;;18.50;99.90;;;;;;5047897;28;20037;-74
2021/08/19 08:08:51;;;;;;;11.18;7.38;;;18.50;99.90;;;;;;5044741;28;20024;-74
2021/08/19 08:11:17;;;;;;;12.30;8.10;;;18.50;99.90;;;;;;5046767;28;20041;-73
2021/08/19 08:13:43;;;;;;;10.63;6.93;;;18.60;99.90;;;;;;5045713;28;20140;-74
2021/08/19 08:16:09;;;;;;;16.45;7.70;;;18.60;99.90;;;;;;5046227;28;20378;-74
2021/08/19 08:18:35;;;;;;;8.63;6.13;;;18.70;99.90;;;;;;5045433;28;20444;-74
2021/08/19 08:21:02;;;;;;;13.48;7.03;;;18.70;99.90;;;;;;5046176;28;20067;-74
2021/08/19 08:23:32;;;;;;;14.05;6.30;;;18.80;99.90;;;;;;5046598;28;20044;-74
2021/08/19 08:25:58;;;;;;;9.95;6.55;;;18.70;99.90;;;;;;5045139;28;20041;-73
2021/08/19 08:28:26;;;;;;;11.32;7.38;;;18.70;99.90;;;;;;5047868;28;20041;-74
2021/08/19 08:30:53;;;;;;;10.07;6.47;;;18.60;99.90;;;;;;5046304;28;20068;-74
2021/08/19 08:33:20;;;;;;;12.63;6.78;;;18.60;99.90;;;;;;5046403;28;21595;-74
2021/08/19 08:35:45;;;;;;;12.07;7.20;;;18.70;99.90;;;;;;5046147;28;20392;-75
2021/08/19 08:38:14;;;;;;;12.45;7.18;;;18.70;99.90;;;;;;5046309;28;20033;-74
2021/08/19 08:40:42;;;;;;;9.05;6.95;;;18.60;99.90;;;;;;5045976;28;20033;-74
2021/08/19 08:43:09;;;;;;;9.30;6.93;;;18.70;99.90;;;;;;5045052;28;20033;-73
2021/08/19 08:45:36;;;;;;;13.88;7.45;;;18.70;99.90;;;;;;5061725;28;20369;-74
2021/08/19 08:48:09;;;;;;;14.00;7.63;;;18.70;99.90;;;;;;5045813;28;20028;-74
2021/08/19 08:50:37;;;;;;;11.48;6.63;;;18.70;99.90;;;;;;5046328;28;20039;-73
2021/08/19 08:53:04;;;;;;;;;;;18.60;99.90;;;;;;5044379;28;20485;-73
2021/08/19 08:55:29;;;;;;;11.20;7.17;;;18.70;99.90;;;;;;5045939;28;20316;-73
2021/08/19 08:57:58;;;;;;;9.93;7.15;;;18.80;99.90;;;;;;5046275;28;20052;-74
2021/08/19 09:00:23;;;;;;;11.18;6.90;;;18.70;99.90;;;;;;5049285;28;20103;-74
2021/08/19 09:02:49;;;;;;;14.40;7.00;;;18.70;99.90;;;;;;5050087;28;20060;-73
2021/08/19 09:05:17;;;;;;;13.95;6.55;;;18.70;99.90;;;;;;5048917;28;20032;-75
2021/08/19 09:07:44;;;;;;;14.27;6.78;;;18.60;99.90;;;;;;5047724;28;20489;-73
2021/08/19 09:10:12;;;;;;;17.30;7.50;;;18.60;99.90;;;;;;5061785;28;20032;-75
2021/08/19 09:12:40;;;;;;;11.63;7.32;;;18.60;99.90;;;;;;5048838;28;20027;-74
2021/08/19 09:15:13;;;;;;;;;;;18.60;99.90;;;;;;5049386;28;20552;-74
2021/08/19 09:17:52;;;;;;;20.05;8.10;;;18.60;99.90;;;;;;5052838;28;19909;-75
2021/08/19 09:20:19;;;;;;;16.50;8.52;;;18.60;99.90;;;;;;5048825;28;20418;-75
2021/08/19 09:22:59;;;;;;;15.32;7.30;;;18.70;99.90;;;;;;5049174;28;20060;-75
2021/08/19 09:25:26;;;;;;;12.05;7.15;;;18.70;99.90;;;;;;5046589;28;20074;-75
2021/08/19 09:28:27;;;;;;;10.32;7.15;;;18.70;99.90;;;;;;5045409;28;20535;-75
2021/08/19 09:30:54;;;;;;;14.45;7.22;;;18.70;99.90;;;;;;5048583;28;20068;-74
2021/08/19 09:33:23;;;;;;;11.02;7.88;;;18.70;99.90;;;;;;5044535;28;20524;-74
2021/08/19 09:35:49;;;;;;;14.27;7.88;;;18.70;99.90;;;;;;5051700;28;20021;-75
2021/08/19 09:38:26;;;;;;;18.30;7.67;;;18.70;99.90;;;;;;5051525;28;20052;-75
2021/08/19 09:41:13;;;;;;;13.27;7.65;;;18.70;99.90;;;;;;5050685;28;20326;-75
2021/08/19 09:43:49;;;;;;;12.98;6.82;;;18.70;99.90;;;;;;5053325;28;20078;-74
2021/08/19 09:46:31;;;;;;;9.80;6.85;;;18.70;99.90;;;;;;5049776;28;20528;-74
2021/08/19 09:49:00;;;;;;;14.32;8.40;;;18.70;99.90;;;;;;5047867;28;20040;-75
2021/08/19 09:51:26;;;;;;;15.98;7.43;;;18.80;99.90;;;;;;5049161;28;20036;-75
2021/08/19 09:53:58;;;;;;;16.02;8.10;;;18.80;99.90;;;;;;5047956;28;20481;-75
2021/08/19 09:56:30;;;;;;;12.45;7.18;;;18.80;99.90;;;;;;5051659;28;20033;-75
2021/08/19 09:59:22;;;;;;;12.15;7.03;;;18.90;99.90;;;;;;5049386;28;20029;-75
2021/08/19 10:01:55;;;;;;;11.02;6.90;;;19.10;99.90;;;;;;5042947;28;20029;-75
2021/08/19 10:04:25;;;;;;;11.63;6.35;;;19.10;99.90;;;;;;5055178;28;20563;-75
2021/08/19 10:06:50;;;;;;;13.40;6.95;;;19.30;99.90;;;;;;5050924;28;20041;-75
2021/08/19 10:09:16;;;;;;;9.35;7.22;;;19.30;99.90;;;;;;5051050;28;20468;-75
2021/08/19 10:11:47;;;;;;;13.98;6.88;;;19.30;99.90;;;;;;5051510;28;20061;-75
2021/08/19 10:14:15;;;;;;;15.88;7.88;;;19.20;99.90;;;;;;5063441;28;20119;-76
2021/08/19 10:16:41;;;;;;;10.25;6.32;;;19.20;99.90;;;;;;5047227;28;20021;-75
2021/08/19 10:19:28;;;;;;;14.00;7.20;;;19.20;99.90;;;;;;5051255;28;20060;-74
2021/08/19 10:22:03;;;;;;;9.32;6.78;;;19.10;99.90;;;;;;5049911;28;20523;-75
2021/08/19 10:24:34;;;;;;;15.15;6.78;;;19.10;99.90;;;;;;5051045;28;20525;-75
2021/08/19 10:27:27;;;;;;;13.23;7.53;;;19.10;99.90;;;;;;5052307;28;20036;-75
2021/08/19 10:30:03;;;;;;;13.38;6.65;;;19.10;99.90;;;;;;5047572;28;20116;-75
2021/08/19 10:32:36;;;;;;;10.50;6.80;;;19.10;99.90;;;;;;5049639;28;20059;-75
2021/08/19 10:35:08;;;;;;;11.13;6.80;;;19.00;99.90;;;;;;5053478;28;20421;-75
2021/08/19 10:40:24;;;;;;;14.55;7.40;;;19.00;99.90;;;;;;5054017;28;20040;-75
2021/08/19 10:42:55;;;;;;;10.75;6.43;;;19.00;99.90;;;;;;5052877;28;20021;-75
2021/08/19 10:45:27;;;;;;;12.50;7.30;;;18.90;99.90;;;;;;5048109;28;20056;-75
2021/08/19 10:48:01;;;;;;;12.60;7.80;;;19.00;99.90;;;;;;5048994;28;20033;-75
2021/08/19 10:50:36;;;;;;;12.27;7.47;;;19.10;99.90;;;;;;5050587;28;20029;-75
2021/08/19 10:53:21;;;;;;;8.60;6.68;;;19.10;99.90;;;;;;5049259;28;20061;-75
2021/08/19 10:55:52;;;;;;;14.40;8.30;;;19.10;99.90;;;;;;5052179;28;20078;-75
2021/08/19 10:58:32;;;;;;;14.60;8.10;;;19.10;99.90;;;;;;5063601;28;20126;-75
2021/08/19 11:01:00;;;;;;;10.35;7.30;;;19.10;99.90;;;;;;5054427;28;20033;-76
2021/08/19 11:03:38;;;;;;;16.77;7.75;;;19.10;99.90;;;;;;5068536;28;20024;-76
2021/08/19 11:06:11;;;;;;;9.48;7.88;;;19.10;99.90;;;;;;5069400;28;20089;-76
2021/08/19 11:08:51;;;;;;;11.35;7.85;;;19.10;99.90;;;;;;5083239;28;20017;-75
2021/08/19 11:11:34;;;;;;;15.02;7.50;;;19.10;99.90;;;;;;5081989;28;20021;-75
2021/08/19 11:14:14;;;;;;;13.68;7.47;;;19.10;99.90;;;;;;5072065;28;20043;-75
2021/08/19 11:16:41;;;;;;;15.00;7.95;;;19.20;99.90;;;;;;5071957;28;20001;-75
2021/08/19 11:19:26;;;;;;;16.13;7.75;;;19.20;99.90;;;;;;5081986;28;20063;-74
2021/08/19 11:22:03;;;;;;;9.60;7.05;;;19.30;99.90;;;;;;5080904;28;20017;-75
2021/08/19 11:24:31;;;;;;;10.90;6.75;;;19.30;99.90;;;;;;5072774;28;20029;-74
2021/08/19 11:27:09;;;;;;;11.52;6.63;;;19.30;99.90;;;;;;5072918;28;20025;-75
2021/08/19 11:29:41;;;;;;;;;;;19.40;99.90;;;;;;5074989;28;20033;-74
2021/08/19 11:32:15;;;;;;;11.90;7.95;;;19.30;99.90;;;;;;5065193;28;19939;-75
2021/08/19 11:34:49;;;;;;;12.55;8.70;;;19.30;99.90;;;;;;5073628;28;20413;-74
2021/08/19 11:37:26;;;;;;;13.40;8.27;;;19.20;99.90;;;;;;5074281;28;20044;-75
2021/08/19 11:39:56;;;;;;;10.82;7.60;;;19.20;99.90;;;;;;5084181;28;20033;-75
2021/08/19 11:42:33;;;;;;;12.00;7.43;;;19.10;99.90;;;;;;5089250;28;20009;-76
2021/08/19 11:45:20;;;;;;;11.60;7.22;;;19.10;99.90;;;;;;5072594;28;20009;-75
2021/08/19 11:47:46;;;;;;;8.63;6.90;;;19.00;99.90;;;;;;5065988;28;20060;-73
2021/08/19 11:50:12;;;;;;;8.77;6.70;;;19.00;99.90;;;;;;5056417;28;20523;-75
2021/08/19 11:52:38;;;;;;;9.20;6.15;;;19.00;99.90;;;;;;5058476;28;20306;-76
2021/08/19 11:55:05;;;;;;;9.15;6.40;;;18.90;99.90;;;;;;5057857;28;20024;-75
2021/08/19 11:57:30;;;;;;;11.73;7.40;;;18.80;99.90;;;;;;5049228;28;20056;-75
2021/08/19 12:00:15;;;;;;;9.80;5.38;;;18.80;99.90;;;;;;5055234;28;20025;-74
2021/08/19 12:02:41;;;;;;;6.28;4.90;;;18.90;99.90;;;;;;5054901;28;20037;-75
2021/08/19 12:05:09;;;;;;;7.25;6.18;;;18.80;99.90;;;;;;5066457;28;20377;-74
2021/08/19 12:07:37;;;;;;;11.88;6.15;;;18.90;99.90;;;;;;5054347;28;20029;-74
2021/08/19 12:10:04;;;;;;;9.38;6.80;;;18.90;99.90;;;;;;5054734;28;20013;-74
2021/08/19 12:12:35;;;;;;;10.25;5.78;;;18.80;99.90;;;;;;5053571;28;20082;-74
2021/08/19 12:15:02;;;;;;;8.90;4.55;;;18.80;99.90;;;;;;5053499;28;20031;-74
2021/08/19 12:17:28;;;;;;;4.85;4.32;;;18.80;99.90;;;;;;5049835;28;20082;-75
2021/08/19 12:20:16;;;;;;;8.52;4.78;;;18.80;99.90;;;;;;5043383;28;20037;-75
2021/08/19 12:22:42;;;;;;;5.03;4.43;;;18.70;99.90;;;;;;5046037;28;20040;-75
2021/08/19 12:25:22;;;;;;;6.18;4.30;;;18.70;99.90;;;;;;5040463;28;20108;-75
2021/08/19 12:28:17;;;;;;;8.55;5.53;;;18.70;99.90;;;;;;5052473;28;20067;-75
2021/08/19 12:31:02;;;;;;;6.28;4.75;;;18.80;99.90;;;;;;5052434;28;20045;-75
2021/08/19 12:33:39;;;;;;;8.55;5.28;;;18.90;99.90;;;;;;5055913;28;20040;-75
2021/08/19 12:36:18;;;;;;;6.95;5.68;;;19.00;99.90;;;;;;5054669;28;20041;-75
2021/08/19 12:38:46;;;;;;;7.28;4.43;;;19.00;99.90;;;;;;5046405;28;20452;-75
2021/08/19 12:41:24;;;;;;;7.30;5.63;;;19.00;99.90;;;;;;5050847;28;20021;-75
2021/08/19 12:44:07;;;;;;;8.60;4.72;;;18.90;99.90;;;;;;5054764;28;20358;-75
2021/08/19 12:46:41;;;;;;;7.93;5.30;;;18.80;99.90;;;;;;5053129;28;20021;-75
2021/08/19 12:49:26;;;;;;;6.35;5.20;;;18.70;99.90;;;;;;5072027;28;20477;-75